Time,TemperatureF,DewpointF,PressureIn,WindDirection,WindDirectionDegrees,WindSpeedMPH,WindSpeedGustMPH,Humidity,HourlyPrecipIn,Conditions,Clouds,dailyrainin,SoftwareType,DateUTC
2017-05-29 00:00:00,58.8,47.9,29.93,NNW,337,2.7,-999.0,67,-99.99,,,0.00,,2017-05-29 07:00:00,
2017-05-29 00:06:00,59.0,48.5,29.92,NW,315,3.2,-999.0,68,-99.99,,,0.00,,2017-05-29 07:06:00,
2017-05-29 00:11:00,58.8,48.3,29.92,NNW,337,0.0,-999.0,68,-99.99,,,0.00,,2017-05-29 07:11:00,
2017-05-29 00:17:00,59.4,48.8,29.93,NNW,337,1.7,-999.0,68,-99.99,,,0.00,,2017-05-29 07:17:00,
2017-05-29 00:22:00,59.4,48.8,29.93,NNW,337,2.7,-999.0,68,-99.99,,,0.00,,2017-05-29 07:22:00,
2017-05-29 00:28:00,59.9,48.9,29.93,NW,315,2.7,-999.0,67,-99.99,,,0.00,,2017-05-29 07:28:00,
2017-05-29 00:33:00,60.1,49.5,29.93,NNW,337,2.2,-999.0,68,-99.99,,,0.00,,2017-05-29 07:33:00,
2017-05-29 00:38:00,60.1,49.9,29.92,NW,315,2.7,-999.0,69,-99.99,,,0.00,,2017-05-29 07:38:00,
2017-05-29 00:44:00,60.3,50.1,29.92,NW,315,2.7,-999.0,69,-99.99,,,0.00,,2017-05-29 07:44:00,
2017-05-29 00:49:00,60.3,50.9,29.92,NW,315,2.2,-999.0,71,-99.99,,,0.00,,2017-05-29 07:49:00,
2017-05-29 00:55:00,60.1,51.0,29.92,NW,315,2.2,-999.0,72,-99.99,,,0.00,,2017-05-29 07:55:00,
2017-05-29 01:01:00,60.1,51.8,29.92,NNW,337,0.0,-999.0,74,-99.99,,,0.00,,2017-05-29 08:01:00,
2017-05-29 01:06:00,59.9,51.6,29.92,NW,315,0.0,-999.0,74,-99.99,,,0.00,,2017-05-29 08:06:00,
2017-05-29 01:12:00,59.5,51.9,29.92,NNW,337,0.0,-999.0,76,-99.99,,,0.00,,2017-05-29 08:12:00,
2017-05-29 01:17:00,59.4,51.8,29.92,NW,315,0.0,-999.0,76,-99.99,,,0.00,,2017-05-29 08:17:00,
2017-05-29 01:18:00,59.4,51.8,29.92,NW,315,0.0,-999.0,76,-99.99,,,0.00,,2017-05-29 08:18:00,
2017-05-29 01:23:00,59.4,52.2,29.92,NW,315,0.0,-999.0,77,-99.99,,,0.00,,2017-05-29 08:23:00,
2017-05-29 01:29:00,59.2,52.3,29.93,NW,315,0.0,-999.0,78,-99.99,,,0.00,,2017-05-29 08:29:00,
2017-05-29 01:35:00,58.8,52.3,29.93,NW,315,0.0,-999.0,79,-99.99,,,0.00,,2017-05-29 08:35:00,
2017-05-29 01:40:00,58.5,52.0,29.93,NW,315,0.0,-999.0,79,-99.99,,,0.00,,2017-05-29 08:40:00,
2017-05-29 01:42:00,58.5,52.0,29.93,NW,315,0.0,-999.0,79,-99.99,,,0.00,,2017-05-29 08:42:00,
2017-05-29 01:48:00,58.5,52.0,29.93,NNW,337,1.7,-999.0,79,-99.99,,,0.00,,2017-05-29 08:48:00,
2017-05-29 01:53:00,58.5,52.4,29.93,NW,315,0.0,-999.0,80,-99.99,,,0.00,,2017-05-29 08:53:00,
2017-05-29 01:59:00,58.1,52.0,29.93,NW,315,2.2,-999.0,80,-99.99,,,0.00,,2017-05-29 08:59:00,
2017-05-29 02:05:00,57.9,51.8,29.92,NW,315,2.2,-999.0,80,-99.99,,,0.00,,2017-05-29 09:05:00,
2017-05-29 02:10:00,57.9,51.4,29.92,NW,315,2.2,-999.0,79,-99.99,,,0.00,,2017-05-29 09:10:00,
2017-05-29 02:15:00,57.9,51.4,29.92,NW,315,0.0,-999.0,79,-99.99,,,0.00,,2017-05-29 09:15:00,
2017-05-29 02:21:00,58.1,50.9,29.92,NW,315,0.0,-999.0,77,-99.99,,,0.00,,2017-05-29 09:21:00,
2017-05-29 02:26:00,58.1,50.6,29.92,NW,315,0.0,-999.0,76,-99.99,,,0.00,,2017-05-29 09:26:00,
2017-05-29 02:32:00,57.7,50.2,29.92,NW,315,0.0,-999.0,76,-99.99,,,0.00,,2017-05-29 09:32:00,
2017-05-29 02:37:00,57.6,50.1,29.92,NW,315,0.0,-999.0,76,-99.99,,,0.00,,2017-05-29 09:37:00,
2017-05-29 02:43:00,57.4,49.9,29.92,NW,315,0.0,-999.0,76,-99.99,,,0.00,,2017-05-29 09:43:00,
2017-05-29 02:48:00,57.4,49.5,29.91,NW,315,0.0,-999.0,75,-99.99,,,0.00,,2017-05-29 09:48:00,
2017-05-29 02:54:00,57.4,49.9,29.91,NW,315,0.0,-999.0,76,-99.99,,,0.00,,2017-05-29 09:54:00,
2017-05-29 03:00:00,57.2,49.7,29.91,NW,315,2.2,-999.0,76,-99.99,,,0.00,,2017-05-29 10:00:00,
2017-05-29 03:05:00,57.2,49.3,29.91,NW,315,2.2,-999.0,75,-99.99,,,0.00,,2017-05-29 10:05:00,
2017-05-29 03:10:00,57.2,49.3,29.91,NW,315,2.7,-999.0,75,-99.99,,,0.00,,2017-05-29 10:10:00,
2017-05-29 03:16:00,57.2,49.0,29.91,NW,315,2.7,-999.0,74,-99.99,,,0.00,,2017-05-29 10:16:00,
2017-05-29 03:21:00,57.2,49.0,29.91,NW,315,2.7,-999.0,74,-99.99,,,0.00,,2017-05-29 10:21:00,
2017-05-29 03:26:00,57.0,48.1,29.91,NW,315,2.7,-999.0,72,-99.99,,,0.00,,2017-05-29 10:26:00,
2017-05-29 03:32:00,57.2,48.6,29.91,NW,315,0.0,-999.0,73,-99.99,,,0.00,,2017-05-29 10:32:00,
2017-05-29 03:38:00,57.2,49.0,29.91,NW,315,0.0,-999.0,74,-99.99,,,0.00,,2017-05-29 10:38:00,
2017-05-29 03:43:00,57.0,49.5,29.91,NW,315,0.0,-999.0,76,-99.99,,,0.00,,2017-05-29 10:43:00,
2017-05-29 03:49:00,57.0,49.5,29.91,NW,315,2.2,-999.0,76,-99.99,,,0.00,,2017-05-29 10:49:00,
2017-05-29 03:54:00,57.2,49.7,29.90,NW,315,2.2,-999.0,76,-99.99,,,0.00,,2017-05-29 10:54:00,
2017-05-29 04:00:00,57.2,50.7,29.90,NW,315,2.7,-999.0,79,-99.99,,,0.00,,2017-05-29 11:00:00,
2017-05-29 04:05:00,57.2,50.4,29.90,NW,315,2.7,-999.0,78,-99.99,,,0.00,,2017-05-29 11:05:00,
2017-05-29 04:11:00,57.7,50.5,29.90,NW,315,0.0,-999.0,77,-99.99,,,0.00,,2017-05-29 11:11:00,
2017-05-29 04:16:00,57.6,50.4,29.90,NNW,337,0.0,-999.0,77,-99.99,,,0.00,,2017-05-29 11:16:00,
2017-05-29 04:22:00,57.4,49.9,29.90,NW,315,2.7,-999.0,76,-99.99,,,0.00,,2017-05-29 11:22:00,
2017-05-29 04:27:00,57.6,50.1,29.90,NW,315,3.2,-999.0,76,-99.99,,,0.00,,2017-05-29 11:27:00,
2017-05-29 04:33:00,57.7,50.2,29.90,NW,315,2.7,-999.0,76,-99.99,,,0.00,,2017-05-29 11:33:00,
2017-05-29 04:39:00,57.7,50.2,29.90,NW,315,2.2,-999.0,76,-99.99,,,0.00,,2017-05-29 11:39:00,
2017-05-29 04:44:00,57.6,50.4,29.90,NW,315,0.0,-999.0,77,-99.99,,,0.00,,2017-05-29 11:44:00,
2017-05-29 04:50:00,57.4,50.2,29.90,NW,315,0.0,-999.0,77,-99.99,,,0.00,,2017-05-29 11:50:00,
2017-05-29 04:55:00,57.0,50.2,29.90,NW,315,0.0,-999.0,78,-99.99,,,0.00,,2017-05-29 11:55:00,
2017-05-29 05:01:00,57.0,50.2,29.90,NW,315,0.0,-999.0,78,-99.99,,,0.00,,2017-05-29 12:01:00,
2017-05-29 05:06:00,56.8,50.0,29.89,NW,315,0.0,-999.0,78,-99.99,,,0.00,,2017-05-29 12:06:00,
2017-05-29 05:12:00,56.7,50.3,29.89,NW,315,0.0,-999.0,79,-99.99,,,0.00,,2017-05-29 12:12:00,
2017-05-29 05:17:00,56.7,50.6,29.89,NW,315,0.0,-999.0,80,-99.99,,,0.00,,2017-05-29 12:17:00,
2017-05-29 05:23:00,56.3,49.9,29.89,NW,315,0.0,-999.0,79,-99.99,,,0.00,,2017-05-29 12:23:00,
2017-05-29 05:29:00,56.5,50.1,29.89,NW,315,2.2,-999.0,79,-99.99,,,0.00,,2017-05-29 12:29:00,
2017-05-29 05:34:00,56.5,50.1,29.89,NNW,337,0.0,-999.0,79,-99.99,,,0.00,,2017-05-29 12:34:00,
2017-05-29 05:40:00,56.3,49.9,29.89,NNW,337,0.0,-999.0,79,-99.99,,,0.00,,2017-05-29 12:40:00,
2017-05-29 05:45:00,55.9,49.1,29.89,NW,315,0.0,-999.0,78,-99.99,,,0.00,,2017-05-29 12:45:00,
2017-05-29 05:51:00,55.9,49.1,29.90,NW,315,0.0,-999.0,78,-99.99,,,0.00,,2017-05-29 12:51:00,
2017-05-29 05:56:00,55.9,49.1,29.90,NW,315,0.0,-999.0,78,-99.99,,,0.00,,2017-05-29 12:56:00,
2017-05-29 06:02:00,56.1,48.6,29.90,NW,315,0.0,-999.0,76,-99.99,,,0.00,,2017-05-29 13:02:00,
2017-05-29 06:07:00,55.9,49.1,29.90,NNW,337,0.0,-999.0,78,-99.99,,,0.00,,2017-05-29 13:07:00,
2017-05-29 06:13:00,55.8,49.4,29.90,NNW,337,0.0,-999.0,79,-99.99,,,0.00,,2017-05-29 13:13:00,
2017-05-29 06:18:00,55.8,49.4,29.90,NW,315,0.0,-999.0,79,-99.99,,,0.00,,2017-05-29 13:18:00,
2017-05-29 06:24:00,56.5,50.1,29.90,NW,315,2.7,-999.0,79,-99.99,,,0.00,,2017-05-29 13:24:00,
2017-05-29 06:30:00,56.8,50.4,29.90,NW,315,0.0,-999.0,79,-99.99,,,0.00,,2017-05-29 13:30:00,
2017-05-29 06:35:00,57.7,50.9,29.90,NW,315,0.0,-999.0,78,-99.99,,,0.00,,2017-05-29 13:35:00,
2017-05-29 06:41:00,58.1,51.3,29.91,NW,315,0.0,-999.0,78,-99.99,,,0.00,,2017-05-29 13:41:00,
2017-05-29 06:46:00,58.5,51.7,29.91,NW,315,0.0,-999.0,78,-99.99,,,0.00,,2017-05-29 13:46:00,
2017-05-29 06:52:00,59.0,52.5,29.90,NW,315,0.0,-999.0,79,-99.99,,,0.00,,2017-05-29 13:52:00,
2017-05-29 06:57:00,59.2,52.7,29.90,NW,315,0.0,-999.0,79,-99.99,,,0.00,,2017-05-29 13:57:00,
2017-05-29 07:03:00,59.5,53.0,29.90,NW,315,0.0,-999.0,79,-99.99,,,0.00,,2017-05-29 14:03:00,
2017-05-29 07:08:00,60.3,54.1,29.90,NW,315,0.0,-999.0,80,-99.99,,,0.00,,2017-05-29 14:08:00,
2017-05-29 07:14:00,60.6,54.4,29.91,NNW,337,0.0,-999.0,80,-99.99,,,0.00,,2017-05-29 14:14:00,
2017-05-29 07:20:00,61.2,53.6,29.91,NNE,22,0.0,-999.0,76,-99.99,,,0.00,,2017-05-29 14:20:00,
2017-05-29 07:25:00,61.7,54.4,29.91,NNW,337,0.0,-999.0,77,-99.99,,,0.00,,2017-05-29 14:25:00,
2017-05-29 07:30:00,62.2,54.9,29.91,NNW,337,0.0,-999.0,77,-99.99,,,0.00,,2017-05-29 14:30:00,
2017-05-29 07:36:00,63.0,56.0,29.91,WNW,292,0.0,-999.0,78,-99.99,,,0.00,,2017-05-29 14:36:00,
2017-05-29 07:41:00,64.0,54.4,29.91,West,270,0.0,-999.0,71,-99.99,,,0.00,,2017-05-29 14:41:00,
2017-05-29 07:52:00,68.7,52.4,29.91,ESE,112,0.0,-999.0,56,-99.99,,,0.00,,2017-05-29 14:52:00,
2017-05-29 07:57:00,70.5,53.1,29.91,ESE,112,0.0,-999.0,54,-99.99,,,0.00,,2017-05-29 14:57:00,
2017-05-29 08:03:00,73.0,53.8,29.91,ESE,112,0.0,-999.0,51,-99.99,,,0.00,,2017-05-29 15:03:00,
2017-05-29 08:08:00,74.7,55.9,29.91,SE,135,0.0,-999.0,52,-99.99,,,0.00,,2017-05-29 15:08:00,
2017-05-29 08:14:00,74.8,55.5,29.91,ESE,112,0.0,-999.0,51,-99.99,,,0.00,,2017-05-29 15:14:00,
2017-05-29 08:19:00,75.6,54.0,29.91,SSE,157,0.0,-999.0,47,-99.99,,,0.00,,2017-05-29 15:19:00,
2017-05-29 08:25:00,77.9,54.9,29.91,ESE,112,0.0,-999.0,45,-99.99,,,0.00,,2017-05-29 15:25:00,
2017-05-29 08:30:00,78.4,55.3,29.90,SSE,157,0.0,-999.0,45,-99.99,,,0.00,,2017-05-29 15:30:00,
2017-05-29 08:35:00,77.7,53.4,29.90,SE,135,0.0,-999.0,43,-99.99,,,0.00,,2017-05-29 15:35:00,
2017-05-29 08:41:00,78.8,51.1,29.90,South,180,0.0,-999.0,38,-99.99,,,0.00,,2017-05-29 15:41:00,
2017-05-29 08:46:00,79.7,53.9,29.90,SSE,157,1.7,-999.0,41,-99.99,,,0.00,,2017-05-29 15:46:00,
2017-05-29 08:52:00,79.0,51.2,29.90,SE,135,0.0,-999.0,38,-99.99,,,0.00,,2017-05-29 15:52:00,
2017-05-29 08:58:00,80.4,52.5,29.90,SSW,202,0.0,-999.0,38,-99.99,,,0.00,,2017-05-29 15:58:00,
2017-05-29 09:03:00,82.2,51.8,29.90,South,180,0.0,-999.0,35,-99.99,,,0.00,,2017-05-29 16:03:00,
2017-05-29 09:09:00,82.6,52.2,29.90,SW,225,2.7,-999.0,35,-99.99,,,0.00,,2017-05-29 16:09:00,
2017-05-29 09:14:00,80.6,50.4,29.90,SSW,202,2.7,-999.0,35,-99.99,,,0.00,,2017-05-29 16:14:00,
2017-05-29 09:20:00,81.5,50.4,29.90,SSE,157,1.7,-999.0,34,-99.99,,,0.00,,2017-05-29 16:20:00,
2017-05-29 09:25:00,82.4,51.2,29.90,SSE,157,0.0,-999.0,34,-99.99,,,0.00,,2017-05-29 16:25:00,
2017-05-29 09:30:00,82.6,50.6,29.90,SW,225,4.7,-999.0,33,-99.99,,,0.00,,2017-05-29 16:30:00,
2017-05-29 09:36:00,83.5,52.2,29.90,SE,135,0.0,-999.0,34,-99.99,,,0.00,,2017-05-29 16:36:00,
2017-05-29 09:41:00,83.7,52.4,29.90,South,180,1.1,-999.0,34,-99.99,,,0.00,,2017-05-29 16:41:00,
2017-05-29 09:47:00,84.2,51.2,29.90,SSE,157,6.3,-999.0,32,-99.99,,,0.00,,2017-05-29 16:47:00,
2017-05-29 09:52:00,82.8,52.4,29.90,SSE,157,0.0,-999.0,35,-99.99,,,0.00,,2017-05-29 16:52:00,
2017-05-29 09:58:00,83.8,51.6,29.90,ESE,112,5.8,-999.0,33,-99.99,,,0.00,,2017-05-29 16:58:00,
2017-05-29 10:04:00,82.4,52.8,29.90,SSE,157,4.2,-999.0,36,-99.99,,,0.00,,2017-05-29 17:04:00,
2017-05-29 10:09:00,82.8,52.4,29.90,SSE,157,0.0,-999.0,35,-99.99,,,0.00,,2017-05-29 17:09:00,
2017-05-29 10:15:00,85.1,53.6,29.90,SSE,157,3.2,-999.0,34,-99.99,,,0.00,,2017-05-29 17:15:00,
2017-05-29 10:20:00,86.7,52.5,29.90,South,180,0.0,-999.0,31,-99.99,,,0.00,,2017-05-29 17:20:00,
2017-05-29 10:25:00,88.2,52.9,29.90,SW,225,0.0,-999.0,30,-99.99,,,0.00,,2017-05-29 17:25:00,
2017-05-29 10:31:00,87.6,52.4,29.90,West,270,2.2,-999.0,30,-99.99,,,0.00,,2017-05-29 17:31:00,
2017-05-29 10:36:00,88.5,53.1,29.90,SW,225,3.7,-999.0,30,-99.99,,,0.00,,2017-05-29 17:36:00,
2017-05-29 10:42:00,87.6,55.0,29.89,SSE,157,1.1,-999.0,33,-99.99,,,0.00,,2017-05-29 17:42:00,
2017-05-29 10:47:00,88.3,56.4,29.89,SSW,202,2.7,-999.0,34,-99.99,,,0.00,,2017-05-29 17:47:00,
2017-05-29 10:53:00,88.3,54.7,29.89,South,180,0.0,-999.0,32,-99.99,,,0.00,,2017-05-29 17:53:00,
2017-05-29 10:58:00,87.3,55.5,29.89,SSE,157,4.2,-999.0,34,-99.99,,,0.00,,2017-05-29 17:58:00,
2017-05-29 11:04:00,89.2,54.6,29.89,West,270,0.0,-999.0,31,-99.99,,,0.00,,2017-05-29 18:04:00,
2017-05-29 11:10:00,88.5,56.6,29.89,South,180,0.0,-999.0,34,-99.99,,,0.00,,2017-05-29 18:10:00,
2017-05-29 11:15:00,91.8,55.0,29.89,ESE,112,4.2,-999.0,29,-99.99,,,0.00,,2017-05-29 18:15:00,
2017-05-29 11:20:00,91.4,53.7,29.89,SSW,202,4.7,-999.0,28,-99.99,,,0.00,,2017-05-29 18:20:00,
2017-05-29 11:26:00,90.7,54.1,29.89,WNW,292,0.0,-999.0,29,-99.99,,,0.00,,2017-05-29 18:26:00,
2017-05-29 11:37:00,89.2,54.6,29.89,SSE,157,2.7,-999.0,31,-99.99,,,0.00,,2017-05-29 18:37:00,
2017-05-29 11:42:00,88.2,54.6,29.89,SSW,202,6.3,-999.0,32,-99.99,,,0.00,,2017-05-29 18:42:00,
2017-05-29 11:48:00,89.1,55.4,29.89,South,180,4.2,-999.0,32,-99.99,,,0.00,,2017-05-29 18:48:00,
2017-05-29 11:53:00,87.4,54.8,29.89,South,180,3.2,-999.0,33,-99.99,,,0.00,,2017-05-29 18:53:00,
2017-05-29 11:59:00,87.6,55.8,29.89,SSE,157,1.1,-999.0,34,-99.99,,,0.00,,2017-05-29 18:59:00,
2017-05-29 12:04:00,88.2,55.5,29.89,SW,225,4.2,-999.0,33,-99.99,,,0.00,,2017-05-29 19:04:00,
2017-05-29 12:09:00,86.4,55.5,29.89,SW,225,5.8,-999.0,35,-99.99,,,0.00,,2017-05-29 19:09:00,
2017-05-29 12:15:00,86.9,56.0,29.89,WSW,247,3.7,-999.0,35,-99.99,,,0.00,,2017-05-29 19:15:00,
2017-05-29 12:20:00,88.0,56.1,29.89,SSW,202,6.3,-999.0,34,-99.99,,,0.00,,2017-05-29 19:20:00,
2017-05-29 12:26:00,88.0,57.7,29.89,SSW,202,0.0,-999.0,36,-99.99,,,0.00,,2017-05-29 19:26:00,
2017-05-29 12:32:00,86.7,56.6,29.89,SW,225,0.0,-999.0,36,-99.99,,,0.00,,2017-05-29 19:32:00,
2017-05-29 12:37:00,87.3,56.3,29.88,ESE,112,3.7,-999.0,35,-99.99,,,0.00,,2017-05-29 19:37:00,
2017-05-29 12:43:00,87.3,56.3,29.88,SW,225,6.8,-999.0,35,-99.99,,,0.00,,2017-05-29 19:43:00,
2017-05-29 12:48:00,89.2,56.4,29.88,South,180,5.8,-999.0,33,-99.99,,,0.00,,2017-05-29 19:48:00,
2017-05-29 12:54:00,87.6,56.6,29.88,ESE,112,6.3,-999.0,35,-99.99,,,0.00,,2017-05-29 19:54:00,
2017-05-29 12:59:00,90.0,58.7,29.88,South,180,0.0,-999.0,35,-99.99,,,0.00,,2017-05-29 19:59:00,
2017-05-29 13:05:00,90.1,57.1,29.89,SSW,202,5.3,-999.0,33,-99.99,,,0.00,,2017-05-29 20:05:00,
2017-05-29 13:10:00,88.5,56.6,29.89,South,180,4.7,-999.0,34,-99.99,,,0.00,,2017-05-29 20:10:00,
2017-05-29 13:16:00,90.1,56.3,29.89,South,180,3.7,-999.0,32,-99.99,,,0.00,,2017-05-29 20:16:00,
2017-05-29 13:22:00,90.1,57.1,29.89,South,180,0.0,-999.0,33,-99.99,,,0.00,,2017-05-29 20:22:00,
2017-05-29 13:27:00,91.0,54.3,29.88,WNW,292,3.7,-999.0,29,-99.99,,,0.00,,2017-05-29 20:27:00,
2017-05-29 13:32:00,89.4,56.5,29.88,ESE,112,0.0,-999.0,33,-99.99,,,0.00,,2017-05-29 20:32:00,
2017-05-29 13:38:00,86.9,55.2,29.88,SSW,202,3.2,-999.0,34,-99.99,,,0.00,,2017-05-29 20:38:00,
2017-05-29 13:54:00,91.4,55.6,29.88,SSW,202,0.0,-999.0,30,-99.99,,,0.00,,2017-05-29 20:54:00,
2017-05-29 13:59:00,91.9,56.1,29.88,West,270,7.3,-999.0,30,-99.99,,,0.00,,2017-05-29 20:59:00,
2017-05-29 14:05:00,90.5,56.6,29.87,ESE,112,2.7,-999.0,32,-99.99,,,0.00,,2017-05-29 21:05:00,
2017-05-29 14:10:00,91.9,57.0,29.87,SSW,202,1.1,-999.0,31,-99.99,,,0.00,,2017-05-29 21:10:00,
2017-05-29 14:16:00,91.8,56.9,29.87,ESE,112,0.0,-999.0,31,-99.99,,,0.00,,2017-05-29 21:16:00,
2017-05-29 14:21:00,91.4,55.6,29.87,SW,225,6.8,-999.0,30,-99.99,,,0.00,,2017-05-29 21:21:00,
2017-05-29 14:26:00,90.3,56.5,29.87,SSE,157,5.8,-999.0,32,-99.99,,,0.00,,2017-05-29 21:26:00,
2017-05-29 14:32:00,91.4,57.4,29.87,West,270,2.7,-999.0,32,-99.99,,,0.00,,2017-05-29 21:32:00,
2017-05-29 14:37:00,90.3,55.6,29.87,East,90,0.0,-999.0,31,-99.99,,,0.00,,2017-05-29 21:37:00,
2017-05-29 14:43:00,91.2,55.5,29.87,WSW,247,2.2,-999.0,30,-99.99,,,0.00,,2017-05-29 21:43:00,
2017-05-29 14:48:00,90.7,56.8,29.87,ESE,112,2.7,-999.0,32,-99.99,,,0.00,,2017-05-29 21:48:00,
2017-05-29 14:53:00,90.3,56.5,29.86,West,270,4.2,-999.0,32,-99.99,,,0.00,,2017-05-29 21:53:00,
2017-05-29 14:59:00,89.6,57.5,29.86,South,180,0.0,-999.0,34,-99.99,,,0.00,,2017-05-29 21:59:00,
2017-05-29 15:05:00,90.0,56.2,29.86,SSE,157,5.3,-999.0,32,-99.99,,,0.00,,2017-05-29 22:05:00,
2017-05-29 15:10:00,90.1,55.4,29.86,SSW,202,3.2,-999.0,31,-99.99,,,0.00,,2017-05-29 22:10:00,
2017-05-29 15:16:00,89.2,56.4,29.86,SE,135,3.7,-999.0,33,-99.99,,,0.00,,2017-05-29 22:16:00,
2017-05-29 15:21:00,92.3,54.5,29.86,WSW,247,5.8,-999.0,28,-99.99,,,0.00,,2017-05-29 22:21:00,
2017-05-29 15:27:00,90.1,54.5,29.85,SSW,202,0.0,-999.0,30,-99.99,,,0.00,,2017-05-29 22:27:00,
2017-05-29 15:33:00,90.5,55.8,29.85,East,90,1.7,-999.0,31,-99.99,,,0.00,,2017-05-29 22:33:00,
2017-05-29 15:38:00,89.1,56.3,29.85,South,180,1.7,-999.0,33,-99.99,,,0.00,,2017-05-29 22:38:00,
2017-05-29 15:43:00,87.4,56.4,29.85,ESE,112,2.7,-999.0,35,-99.99,,,0.00,,2017-05-29 22:43:00,
2017-05-29 15:54:00,88.7,55.9,29.85,West,270,6.8,-999.0,33,-99.99,,,0.00,,2017-05-29 22:54:00,
2017-05-29 16:00:00,86.2,54.6,29.85,West,270,2.7,-999.0,34,-99.99,,,0.00,,2017-05-29 23:00:00,
2017-05-29 16:05:00,86.5,55.6,29.85,ESE,112,1.1,-999.0,35,-99.99,,,0.00,,2017-05-29 23:05:00,
2017-05-29 16:11:00,87.8,56.8,29.85,SW,225,3.7,-999.0,35,-99.99,,,0.00,,2017-05-29 23:11:00,
2017-05-29 16:16:00,86.7,55.8,29.85,SSE,157,3.2,-999.0,35,-99.99,,,0.00,,2017-05-29 23:16:00,
2017-05-29 16:22:00,86.9,56.0,29.85,West,270,1.7,-999.0,35,-99.99,,,0.00,,2017-05-29 23:22:00,
2017-05-29 16:27:00,88.3,56.4,29.84,East,90,0.0,-999.0,34,-99.99,,,0.00,,2017-05-29 23:27:00,
2017-05-29 16:30:00,87.4,56.4,29.84,SW,225,3.2,-999.0,35,-99.99,,,0.00,,2017-05-29 23:30:00,
2017-05-29 16:35:00,89.8,56.9,29.84,West,270,5.8,-999.0,33,-99.99,,,0.00,,2017-05-29 23:35:00,
2017-05-29 16:41:00,88.5,56.6,29.84,ESE,112,1.1,-999.0,34,-99.99,,,0.00,,2017-05-29 23:41:00,
2017-05-29 16:46:00,88.5,56.6,29.84,SSW,202,0.0,-999.0,34,-99.99,,,0.00,,2017-05-29 23:46:00,
2017-05-29 16:52:00,86.5,56.4,29.84,SSE,157,4.2,-999.0,36,-99.99,,,0.00,,2017-05-29 23:52:00,
2017-05-29 16:57:00,87.6,56.6,29.84,ESE,112,2.7,-999.0,35,-99.99,,,0.00,,2017-05-29 23:57:00,
2017-05-29 17:03:00,88.3,56.4,29.83,SSE,157,3.2,-999.0,34,-99.99,,,0.00,,2017-05-30 00:03:00,
2017-05-29 17:09:00,86.2,56.9,29.83,South,180,6.3,-999.0,37,-99.99,,,0.00,,2017-05-30 00:09:00,
2017-05-29 17:13:00,86.4,57.1,29.83,SE,135,1.1,-999.0,37,-99.99,,,0.00,,2017-05-30 00:13:00,
2017-05-29 17:19:00,88.2,57.1,29.83,SW,225,5.3,-999.0,35,-99.99,,,0.00,,2017-05-30 00:19:00,
2017-05-29 17:25:00,89.8,56.9,29.83,West,270,5.8,-999.0,33,-99.99,,,0.00,,2017-05-30 00:25:00,
2017-05-29 17:30:00,88.0,57.7,29.83,SW,225,0.0,-999.0,36,-99.99,,,0.00,,2017-05-30 00:30:00,
2017-05-29 17:36:00,85.3,56.8,29.83,West,270,0.0,-999.0,38,-99.99,,,0.00,,2017-05-30 00:36:00,
2017-05-29 17:41:00,85.1,57.4,29.83,South,180,0.0,-999.0,39,-99.99,,,0.00,,2017-05-30 00:41:00,
2017-05-29 17:47:00,84.7,57.7,29.83,South,180,0.0,-999.0,40,-99.99,,,0.00,,2017-05-30 00:47:00,
2017-05-29 17:52:00,85.8,58.0,29.83,SW,225,1.7,-999.0,39,-99.99,,,0.00,,2017-05-30 00:52:00,
2017-05-29 17:58:00,84.0,57.1,29.83,East,90,0.0,-999.0,40,-99.99,,,0.00,,2017-05-30 00:58:00,
2017-05-29 18:03:00,85.6,57.8,29.82,SE,135,0.0,-999.0,39,-99.99,,,0.00,,2017-05-30 01:03:00,
2017-05-29 18:09:00,83.8,58.3,29.82,SSW,202,4.2,-999.0,42,-99.99,,,0.00,,2017-05-30 01:09:00,
2017-05-29 18:14:00,82.9,58.1,29.82,South,180,0.0,-999.0,43,-99.99,,,0.00,,2017-05-30 01:14:00,
2017-05-29 18:20:00,82.9,58.1,29.82,SSW,202,0.0,-999.0,43,-99.99,,,0.00,,2017-05-30 01:20:00,
2017-05-29 18:26:00,82.8,58.0,29.82,SSE,157,0.0,-999.0,43,-99.99,,,0.00,,2017-05-30 01:26:00,
2017-05-29 18:31:00,83.1,57.6,29.82,SW,225,0.0,-999.0,42,-99.99,,,0.00,,2017-05-30 01:31:00,
2017-05-29 18:37:00,82.2,58.1,29.82,NE,45,0.0,-999.0,44,-99.99,,,0.00,,2017-05-30 01:37:00,
2017-05-29 18:42:00,81.9,57.9,29.82,SSW,202,0.0,-999.0,44,-99.99,,,0.00,,2017-05-30 01:42:00,
2017-05-29 18:48:00,81.9,57.9,29.82,South,180,0.0,-999.0,44,-99.99,,,0.00,,2017-05-30 01:48:00,
2017-05-29 18:53:00,82.0,57.9,29.82,WSW,247,0.0,-999.0,44,-99.99,,,0.00,,2017-05-30 01:53:00,
2017-05-29 18:59:00,81.1,57.8,29.82,SSW,202,0.0,-999.0,45,-99.99,,,0.00,,2017-05-30 01:59:00,
2017-05-29 19:04:00,80.6,57.9,29.82,WSW,247,0.0,-999.0,46,-99.99,,,0.00,,2017-05-30 02:04:00,
2017-05-29 19:10:00,79.3,57.9,29.82,WSW,247,0.0,-999.0,48,-99.99,,,0.00,,2017-05-30 02:10:00,
2017-05-29 19:16:00,78.1,60.6,29.82,NW,315,0.0,-999.0,55,-99.99,,,0.00,,2017-05-30 02:16:00,
2017-05-29 19:22:00,76.1,60.3,29.82,NW,315,0.0,-999.0,58,-99.99,,,0.00,,2017-05-30 02:22:00,
2017-05-29 19:27:00,74.7,60.4,29.82,WNW,292,0.0,-999.0,61,-99.99,,,0.00,,2017-05-30 02:27:00,
2017-05-29 19:33:00,73.8,60.0,29.82,NW,315,0.0,-999.0,62,-99.99,,,0.00,,2017-05-30 02:33:00,
2017-05-29 19:38:00,72.7,59.8,29.82,NNW,337,0.0,-999.0,64,-99.99,,,0.00,,2017-05-30 02:38:00,
2017-05-29 19:44:00,71.8,60.3,29.82,NW,315,0.0,-999.0,67,-99.99,,,0.00,,2017-05-30 02:44:00,
2017-05-29 19:49:00,71.2,60.1,29.82,NW,315,0.0,-999.0,68,-99.99,,,0.00,,2017-05-30 02:49:00,
2017-05-29 19:56:00,70.3,59.7,29.82,NW,315,0.0,-999.0,69,-99.99,,,0.00,,2017-05-30 02:56:00,
2017-05-29 20:02:00,70.0,59.8,29.83,WNW,292,0.0,-999.0,70,-99.99,,,0.00,,2017-05-30 03:02:00,
2017-05-29 20:07:00,69.4,59.2,29.83,NW,315,0.0,-999.0,70,-99.99,,,0.00,,2017-05-30 03:07:00,
2017-05-29 20:13:00,68.9,59.1,29.83,NW,315,0.0,-999.0,71,-99.99,,,0.00,,2017-05-30 03:13:00,
2017-05-29 20:18:00,68.4,58.6,29.83,NW,315,0.0,-999.0,71,-99.99,,,0.00,,2017-05-30 03:18:00,
2017-05-29 20:23:00,68.0,58.2,29.83,NW,315,0.0,-999.0,71,-99.99,,,0.00,,2017-05-30 03:23:00,
2017-05-29 20:29:00,67.3,58.0,29.84,NW,315,0.0,-999.0,72,-99.99,,,0.00,,2017-05-30 03:29:00,
2017-05-29 20:34:00,66.7,58.2,29.84,NW,315,0.0,-999.0,74,-99.99,,,0.00,,2017-05-30 03:34:00,
2017-05-29 20:40:00,66.6,58.1,29.84,NW,315,0.0,-999.0,74,-99.99,,,0.00,,2017-05-30 03:40:00,
2017-05-29 20:46:00,66.4,58.2,29.84,NNW,337,0.0,-999.0,75,-99.99,,,0.00,,2017-05-30 03:46:00,
2017-05-29 20:51:00,66.2,58.0,29.84,NNW,337,0.0,-999.0,75,-99.99,,,0.00,,2017-05-30 03:51:00,
2017-05-29 20:57:00,66.0,57.8,29.84,NW,315,0.0,-999.0,75,-99.99,,,0.00,,2017-05-30 03:57:00,
2017-05-29 21:04:00,65.7,57.9,29.85,NNW,337,0.0,-999.0,76,-99.99,,,0.00,,2017-05-30 04:04:00,
2017-05-29 21:09:00,65.7,57.6,29.85,NW,315,0.0,-999.0,75,-99.99,,,0.00,,2017-05-30 04:09:00,
2017-05-29 21:15:00,65.7,57.9,29.84,NW,315,0.0,-999.0,76,-99.99,,,0.00,,2017-05-30 04:15:00,
2017-05-29 21:20:00,65.7,57.9,29.84,NW,315,0.0,-999.0,76,-99.99,,,0.00,,2017-05-30 04:20:00,
2017-05-29 21:26:00,65.7,57.2,29.85,NW,315,0.0,-999.0,74,-99.99,,,0.00,,2017-05-30 04:26:00,
2017-05-29 21:33:00,65.7,56.8,29.85,NW,315,0.0,-999.0,73,-99.99,,,0.00,,2017-05-30 04:33:00,
2017-05-29 21:39:00,65.7,57.2,29.85,East,90,0.0,-999.0,74,-99.99,,,0.00,,2017-05-30 04:39:00,
2017-05-29 21:44:00,65.1,57.3,29.85,West,270,0.0,-999.0,76,-99.99,,,0.00,,2017-05-30 04:44:00,
2017-05-29 21:50:00,64.9,56.8,29.86,NW,315,0.0,-999.0,75,-99.99,,,0.00,,2017-05-30 04:50:00,
2017-05-29 21:55:00,64.8,56.7,29.86,NW,315,0.0,-999.0,75,-99.99,,,0.00,,2017-05-30 04:55:00,
2017-05-29 22:00:00,64.6,56.9,29.86,NW,315,0.0,-999.0,76,-99.99,,,0.00,,2017-05-30 05:00:00,
2017-05-29 22:06:00,64.4,56.7,29.85,NNW,337,0.0,-999.0,76,-99.99,,,0.00,,2017-05-30 05:06:00,
2017-05-29 22:11:00,64.2,56.5,29.85,NW,315,0.0,-999.0,76,-99.99,,,0.00,,2017-05-30 05:11:00,
2017-05-29 22:17:00,64.0,56.3,29.86,NW,315,0.0,-999.0,76,-99.99,,,0.00,,2017-05-30 05:17:00,
2017-05-29 22:22:00,63.9,56.2,29.86,WNW,292,0.0,-999.0,76,-99.99,,,0.00,,2017-05-30 05:22:00,
2017-05-29 22:28:00,63.7,56.7,29.86,NW,315,0.0,-999.0,78,-99.99,,,0.00,,2017-05-30 05:28:00,
2017-05-29 22:33:00,63.3,56.3,29.86,NW,315,0.0,-999.0,78,-99.99,,,0.00,,2017-05-30 05:33:00,
2017-05-29 22:38:00,63.1,56.1,29.86,NNW,337,0.0,-999.0,78,-99.99,,,0.00,,2017-05-30 05:38:00,
2017-05-29 22:44:00,63.1,56.1,29.86,NW,315,0.0,-999.0,78,-99.99,,,0.00,,2017-05-30 05:44:00,
2017-05-29 22:50:00,63.1,56.1,29.86,NW,315,0.0,-999.0,78,-99.99,,,0.00,,2017-05-30 05:50:00,
2017-05-29 22:55:00,63.1,56.1,29.86,NW,315,0.0,-999.0,78,-99.99,,,0.00,,2017-05-30 05:55:00,
2017-05-29 23:01:00,63.1,56.1,29.86,NW,315,0.0,-999.0,78,-99.99,,,0.00,,2017-05-30 06:01:00,
2017-05-29 23:06:00,63.0,56.4,29.86,NW,315,0.0,-999.0,79,-99.99,,,0.00,,2017-05-30 06:06:00,
2017-05-29 23:12:00,63.0,56.4,29.86,NW,315,0.0,-999.0,79,-99.99,,,0.00,,2017-05-30 06:12:00,
2017-05-29 23:17:00,63.0,56.4,29.86,NNW,337,0.0,-999.0,79,-99.99,,,0.00,,2017-05-30 06:17:00,
2017-05-29 23:23:00,62.8,56.5,29.86,NW,315,0.0,-999.0,80,-99.99,,,0.00,,2017-05-30 06:23:00,
2017-05-29 23:28:00,63.0,56.4,29.86,NW,315,0.0,-999.0,79,-99.99,,,0.00,,2017-05-30 06:28:00,
2017-05-29 23:34:00,63.1,56.5,29.86,NW,315,0.0,-999.0,79,-99.99,,,0.00,,2017-05-30 06:34:00,
2017-05-29 23:39:00,63.0,56.4,29.86,NNW,337,0.0,-999.0,79,-99.99,,,0.00,,2017-05-30 06:39:00,
2017-05-29 23:45:00,63.0,56.7,29.86,NW,315,0.0,-999.0,80,-99.99,,,0.00,,2017-05-30 06:45:00,